sensor_id;sensor_type;location;lat;lon;timestamp;P1;durP1;ratioP1;P2;durP2;ratioP2
46230;SDS011;31949;51.404;-0.038;2023-03-01T00:01:38;9.50;;;6.38;;
46230;SDS011;31949;51.404;-0.038;2023-03-01T00:04:06;6.95;;;5.43;;
46230;SDS011;31949;51.404;-0.038;2023-03-01T00:06:34;8.88;;;7.03;;
46230;SDS011;31949;51.404;-0.038;2023-03-01T00:09:01;10.45;;;6.15;;
46230;SDS011;31949;51.404;-0.038;2023-03-01T00:11:29;8.40;;;6.47;;
46230;SDS011;31949;51.404;-0.038;2023-03-01T00:13:58;7.80;;;6.10;;
46230;SDS011;31949;51.404;-0.038;2023-03-01T00:16:32;10.43;;;6.50;;
46230;SDS011;31949;51.404;-0.038;2023-03-01T00:19:07;7.47;;;6.05;;
46230;SDS011;31949;51.404;-0.038;2023-03-01T00:21:40;10.05;;;7.45;;
46230;SDS011;31949;51.404;-0.038;2023-03-01T00:24:08;9.32;;;7.05;;
46230;SDS011;31949;51.404;-0.038;2023-03-01T00:26:35;9.30;;;7.00;;
46230;SDS011;31949;51.404;-0.038;2023-03-01T00:29:03;13.82;;;7.60;;
46230;SDS011;31949;51.404;-0.038;2023-03-01T00:31:31;9.70;;;7.50;;
46230;SDS011;31949;51.404;-0.038;2023-03-01T00:34:00;9.43;;;7.63;;
46230;SDS011;31949;51.404;-0.038;2023-03-01T00:36:33;8.65;;;7.43;;
46230;SDS011;31949;51.404;-0.038;2023-03-01T00:39:03;8.35;;;6.80;;
46230;SDS011;31949;51.404;-0.038;2023-03-01T00:41:32;7.20;;;6.47;;
46230;SDS011;31949;51.404;-0.038;2023-03-01T00:44:01;10.93;;;8.38;;
46230;SDS011;31949;51.404;-0.038;2023-03-01T00:46:28;10.23;;;7.78;;
46230;SDS011;31949;51.404;-0.038;2023-03-01T00:48:57;11.90;;;9.20;;
46230;SDS011;31949;51.404;-0.038;2023-03-01T00:51:26;10.93;;;8.15;;
46230;SDS011;31949;51.404;-0.038;2023-03-01T00:53:56;8.43;;;7.13;;
46230;SDS011;31949;51.404;-0.038;2023-03-01T00:56:25;8.15;;;7.35;;
46230;SDS011;31949;51.404;-0.038;2023-03-01T00:58:54;11.95;;;7.45;;
46230;SDS011;31949;51.404;-0.038;2023-03-01T01:01:22;9.25;;;7.10;;
46230;SDS011;31949;51.404;-0.038;2023-03-01T01:03:58;9.40;;;7.55;;
46230;SDS011;31949;51.404;-0.038;2023-03-01T01:06:31;9.70;;;7.53;;
46230;SDS011;31949;51.404;-0.038;2023-03-01T01:09:00;10.40;;;7.78;;
46230;SDS011;31949;51.404;-0.038;2023-03-01T01:11:28;11.70;;;9.07;;
46230;SDS011;31949;51.404;-0.038;2023-03-01T01:13:57;10.57;;;9.27;;
46230;SDS011;31949;51.404;-0.038;2023-03-01T01:16:26;12.07;;;8.65;;
46230;SDS011;31949;51.404;-0.038;2023-03-01T01:18:55;10.05;;;8.65;;
46230;SDS011;31949;51.404;-0.038;2023-03-01T01:21:23;11.40;;;8.27;;
46230;SDS011;31949;51.404;-0.038;2023-03-01T01:23:51;10.65;;;7.72;;
46230;SDS011;31949;51.404;-0.038;2023-03-01T01:26:20;12.52;;;8.60;;
46230;SDS011;31949;51.404;-0.038;2023-03-01T01:28:52;9.10;;;7.00;;
46230;SDS011;31949;51.404;-0.038;2023-03-01T01:31:20;11.25;;;8.15;;
46230;SDS011;31949;51.404;-0.038;2023-03-01T01:33:50;9.63;;;7.68;;
46230;SDS011;31949;51.404;-0.038;2023-03-01T01:36:18;10.65;;;8.80;;
46230;SDS011;31949;51.404;-0.038;2023-03-01T01:38:46;11.48;;;8.93;;
46230;SDS011;31949;51.404;-0.038;2023-03-01T01:41:15;8.98;;;7.60;;
46230;SDS011;31949;51.404;-0.038;2023-03-01T01:44:08;12.80;;;10.20;;
46230;SDS011;31949;51.404;-0.038;2023-03-01T01:46:53;12.00;;;9.43;;
46230;SDS011;31949;51.404;-0.038;2023-03-01T01:54:41;10.65;;;7.63;;
46230;SDS011;31949;51.404;-0.038;2023-03-01T01:57:24;9.38;;;8.25;;
46230;SDS011;31949;51.404;-0.038;2023-03-01T01:59:56;8.68;;;7.22;;
46230;SDS011;31949;51.404;-0.038;2023-03-01T02:02:27;9.15;;;7.43;;
46230;SDS011;31949;51.404;-0.038;2023-03-01T02:08:02;9.63;;;7.30;;
46230;SDS011;31949;51.404;-0.038;2023-03-01T02:10:31;8.90;;;7.35;;
46230;SDS011;31949;51.404;-0.038;2023-03-01T02:13:01;11.88;;;8.07;;
46230;SDS011;31949;51.404;-0.038;2023-03-01T02:15:33;11.98;;;7.82;;
46230;SDS011;31949;51.404;-0.038;2023-03-01T02:18:02;12.85;;;9.43;;
46230;SDS011;31949;51.404;-0.038;2023-03-01T02:23:25;10.23;;;7.88;;
46230;SDS011;31949;51.404;-0.038;2023-03-01T02:26:01;10.35;;;7.65;;
46230;SDS011;31949;51.404;-0.038;2023-03-01T02:28:40;7.80;;;5.47;;
46230;SDS011;31949;51.404;-0.038;2023-03-01T02:31:10;6.68;;;4.85;;
46230;SDS011;31949;51.404;-0.038;2023-03-01T02:34:01;7.03;;;4.20;;
46230;SDS011;31949;51.404;-0.038;2023-03-01T02:36:32;5.95;;;4.13;;
46230;SDS011;31949;51.404;-0.038;2023-03-01T02:39:03;4.82;;;3.45;;
46230;SDS011;31949;51.404;-0.038;2023-03-01T02:41:35;3.65;;;3.17;;
46230;SDS011;31949;51.404;-0.038;2023-03-01T02:44:04;6.93;;;3.13;;
46230;SDS011;31949;51.404;-0.038;2023-03-01T02:46:32;5.35;;;2.67;;
46230;SDS011;31949;51.404;-0.038;2023-03-01T02:48:59;4.13;;;2.97;;
46230;SDS011;31949;51.404;-0.038;2023-03-01T02:54:07;5.28;;;2.90;;
46230;SDS011;31949;51.404;-0.038;2023-03-01T02:56:40;4.28;;;2.88;;
46230;SDS011;31949;51.404;-0.038;2023-03-01T02:59:09;4.47;;;2.63;;
46230;SDS011;31949;51.404;-0.038;2023-03-01T03:01:37;4.22;;;2.65;;
46230;SDS011;31949;51.404;-0.038;2023-03-01T03:04:08;4.30;;;2.60;;
46230;SDS011;31949;51.404;-0.038;2023-03-01T03:06:37;5.05;;;2.88;;
46230;SDS011;31949;51.404;-0.038;2023-03-01T03:09:04;3.95;;;2.70;;
46230;SDS011;31949;51.404;-0.038;2023-03-01T03:11:31;9.43;;;3.28;;
46230;SDS011;31949;51.404;-0.038;2023-03-01T03:13:59;7.25;;;2.80;;
46230;SDS011;31949;51.404;-0.038;2023-03-01T03:16:27;3.90;;;2.05;;
46230;SDS011;31949;51.404;-0.038;2023-03-01T03:18:56;5.18;;;2.72;;
46230;SDS011;31949;51.404;-0.038;2023-03-01T03:21:32;4.85;;;2.38;;
46230;SDS011;31949;51.404;-0.038;2023-03-01T03:23:59;4.63;;;2.72;;
46230;SDS011;31949;51.404;-0.038;2023-03-01T03:26:27;3.75;;;2.55;;
46230;SDS011;31949;51.404;-0.038;2023-03-01T03:28:55;5.43;;;2.67;;
46230;SDS011;31949;51.404;-0.038;2023-03-01T03:31:22;6.50;;;2.55;;
46230;SDS011;31949;51.404;-0.038;2023-03-01T03:33:50;2.90;;;2.33;;
46230;SDS011;31949;51.404;-0.038;2023-03-01T03:36:18;2.28;;;1.98;;
46230;SDS011;31949;51.404;-0.038;2023-03-01T03:38:47;3.15;;;2.20;;
46230;SDS011;31949;51.404;-0.038;2023-03-01T03:41:15;3.03;;;1.98;;
46230;SDS011;31949;51.404;-0.038;2023-03-01T03:43:43;4.50;;;2.33;;
46230;SDS011;31949;51.404;-0.038;2023-03-01T03:46:10;6.28;;;2.13;;
46230;SDS011;31949;51.404;-0.038;2023-03-01T03:48:39;3.83;;;2.15;;
46230;SDS011;31949;51.404;-0.038;2023-03-01T03:51:12;2.17;;;1.30;;
46230;SDS011;31949;51.404;-0.038;2023-03-01T03:53:41;6.07;;;2.60;;
46230;SDS011;31949;51.404;-0.038;2023-03-01T03:56:09;4.15;;;1.90;;
46230;SDS011;31949;51.404;-0.038;2023-03-01T03:58:37;3.03;;;1.67;;
46230;SDS011;31949;51.404;-0.038;2023-03-01T04:01:04;4.78;;;2.03;;
46230;SDS011;31949;51.404;-0.038;2023-03-01T04:03:32;4.32;;;1.95;;
46230;SDS011;31949;51.404;-0.038;2023-03-01T04:06:02;3.25;;;2.05;;
46230;SDS011;31949;51.404;-0.038;2023-03-01T04:08:30;5.10;;;2.00;;
46230;SDS011;31949;51.404;-0.038;2023-03-01T04:10:59;4.25;;;2.03;;
46230;SDS011;31949;51.404;-0.038;2023-03-01T04:13:47;6.95;;;2.20;;
46230;SDS011;31949;51.404;-0.038;2023-03-01T04:16:15;3.90;;;2.08;;
46230;SDS011;31949;51.404;-0.038;2023-03-01T04:18:44;3.33;;;2.20;;
46230;SDS011;31949;51.404;-0.038;2023-03-01T04:21:13;3.75;;;1.88;;
46230;SDS011;31949;51.404;-0.038;2023-03-01T04:23:40;3.53;;;1.80;;
46230;SDS011;31949;51.404;-0.038;2023-03-01T04:26:07;2.00;;;1.60;;
46230;SDS011;31949;51.404;-0.038;2023-03-01T04:28:36;3.05;;;2.08;;
46230;SDS011;31949;51.404;-0.038;2023-03-01T04:31:07;4.23;;;2.10;;
46230;SDS011;31949;51.404;-0.038;2023-03-01T04:33:40;3.80;;;2.05;;
46230;SDS011;31949;51.404;-0.038;2023-03-01T04:36:13;4.35;;;1.90;;
46230;SDS011;31949;51.404;-0.038;2023-03-01T04:38:42;3.53;;;2.08;;
46230;SDS011;31949;51.404;-0.038;2023-03-01T04:41:15;2.58;;;1.90;;
46230;SDS011;31949;51.404;-0.038;2023-03-01T04:43:44;2.47;;;2.08;;
46230;SDS011;31949;51.404;-0.038;2023-03-01T04:46:12;4.28;;;1.80;;
46230;SDS011;31949;51.404;-0.038;2023-03-01T04:48:42;3.60;;;1.83;;
46230;SDS011;31949;51.404;-0.038;2023-03-01T04:51:10;1.92;;;1.55;;
46230;SDS011;31949;51.404;-0.038;2023-03-01T04:53:40;2.08;;;1.60;;
46230;SDS011;31949;51.404;-0.038;2023-03-01T04:56:08;3.20;;;1.38;;
46230;SDS011;31949;51.404;-0.038;2023-03-01T04:58:35;2.65;;;1.60;;
46230;SDS011;31949;51.404;-0.038;2023-03-01T05:01:08;2.38;;;1.73;;
46230;SDS011;31949;51.404;-0.038;2023-03-01T05:03:42;2.33;;;1.75;;
46230;SDS011;31949;51.404;-0.038;2023-03-01T05:06:10;2.90;;;1.33;;
46230;SDS011;31949;51.404;-0.038;2023-03-01T05:08:38;3.35;;;1.55;;
46230;SDS011;31949;51.404;-0.038;2023-03-01T05:11:07;3.67;;;1.63;;
46230;SDS011;31949;51.404;-0.038;2023-03-01T05:13:36;2.38;;;2.03;;
46230;SDS011;31949;51.404;-0.038;2023-03-01T05:16:04;2.78;;;2.10;;
46230;SDS011;31949;51.404;-0.038;2023-03-01T05:18:33;3.22;;;2.20;;
46230;SDS011;31949;51.404;-0.038;2023-03-01T05:21:02;2.47;;;1.90;;
46230;SDS011;31949;51.404;-0.038;2023-03-01T05:23:32;3.58;;;1.88;;
46230;SDS011;31949;51.404;-0.038;2023-03-01T05:26:00;5.28;;;2.08;;
46230;SDS011;31949;51.404;-0.038;2023-03-01T05:28:33;2.13;;;1.35;;
46230;SDS011;31949;51.404;-0.038;2023-03-01T05:31:00;4.28;;;1.65;;
46230;SDS011;31949;51.404;-0.038;2023-03-01T05:33:27;2.42;;;1.65;;
46230;SDS011;31949;51.404;-0.038;2023-03-01T05:35:58;1.75;;;1.63;;
46230;SDS011;31949;51.404;-0.038;2023-03-01T05:38:26;1.40;;;1.30;;
46230;SDS011;31949;51.404;-0.038;2023-03-01T05:40:53;2.80;;;1.85;;
46230;SDS011;31949;51.404;-0.038;2023-03-01T05:43:20;1.65;;;1.50;;
46230;SDS011;31949;51.404;-0.038;2023-03-01T05:45:48;1.92;;;1.73;;
46230;SDS011;31949;51.404;-0.038;2023-03-01T05:48:15;2.83;;;1.42;;
46230;SDS011;31949;51.404;-0.038;2023-03-01T05:50:43;3.88;;;2.00;;
46230;SDS011;31949;51.404;-0.038;2023-03-01T05:53:13;2.42;;;1.55;;
46230;SDS011;31949;51.404;-0.038;2023-03-01T05:55:43;3.95;;;1.40;;
46230;SDS011;31949;51.404;-0.038;2023-03-01T05:58:14;2.25;;;1.75;;
46230;SDS011;31949;51.404;-0.038;2023-03-01T06:00:44;2.25;;;1.50;;
46230;SDS011;31949;51.404;-0.038;2023-03-01T06:03:13;2.55;;;1.65;;
46230;SDS011;31949;51.404;-0.038;2023-03-01T06:05:42;3.90;;;1.73;;
46230;SDS011;31949;51.404;-0.038;2023-03-01T06:08:10;2.20;;;1.90;;
46230;SDS011;31949;51.404;-0.038;2023-03-01T06:10:38;3.15;;;1.92;;
46230;SDS011;31949;51.404;-0.038;2023-03-01T06:13:06;2.67;;;1.60;;
46230;SDS011;31949;51.404;-0.038;2023-03-01T06:15:33;3.72;;;1.92;;
46230;SDS011;31949;51.404;-0.038;2023-03-01T06:18:00;3.00;;;2.08;;
46230;SDS011;31949;51.404;-0.038;2023-03-01T06:20:28;2.30;;;1.67;;
46230;SDS011;31949;51.404;-0.038;2023-03-01T06:22:56;2.00;;;1.80;;
46230;SDS011;31949;51.404;-0.038;2023-03-01T06:25:24;2.65;;;2.28;;
46230;SDS011;31949;51.404;-0.038;2023-03-01T06:27:52;2.42;;;2.00;;
46230;SDS011;31949;51.404;-0.038;2023-03-01T06:30:20;3.95;;;2.30;;
46230;SDS011;31949;51.404;-0.038;2023-03-01T06:32:49;2.78;;;2.20;;
46230;SDS011;31949;51.404;-0.038;2023-03-01T06:35:17;2.80;;;2.55;;
46230;SDS011;31949;51.404;-0.038;2023-03-01T06:37:45;3.13;;;2.38;;
46230;SDS011;31949;51.404;-0.038;2023-03-01T06:40:13;2.70;;;2.25;;
46230;SDS011;31949;51.404;-0.038;2023-03-01T06:42:42;3.55;;;2.42;;
46230;SDS011;31949;51.404;-0.038;2023-03-01T06:45:14;4.28;;;2.22;;
46230;SDS011;31949;51.404;-0.038;2023-03-01T06:47:42;4.45;;;2.38;;
46230;SDS011;31949;51.404;-0.038;2023-03-01T06:50:09;3.08;;;2.13;;
46230;SDS011;31949;51.404;-0.038;2023-03-01T06:52:37;3.25;;;2.63;;
46230;SDS011;31949;51.404;-0.038;2023-03-01T06:55:05;2.50;;;2.30;;
46230;SDS011;31949;51.404;-0.038;2023-03-01T06:57:32;5.13;;;2.50;;
46230;SDS011;31949;51.404;-0.038;2023-03-01T07:00:00;5.57;;;2.75;;
46230;SDS011;31949;51.404;-0.038;2023-03-01T07:02:27;4.28;;;2.92;;
46230;SDS011;31949;51.404;-0.038;2023-03-01T07:04:54;4.07;;;2.30;;
46230;SDS011;31949;51.404;-0.038;2023-03-01T07:07:21;2.25;;;1.95;;
46230;SDS011;31949;51.404;-0.038;2023-03-01T07:09:49;3.92;;;2.13;;
46230;SDS011;31949;51.404;-0.038;2023-03-01T07:12:16;2.65;;;2.00;;
46230;SDS011;31949;51.404;-0.038;2023-03-01T07:14:43;3.00;;;2.55;;
46230;SDS011;31949;51.404;-0.038;2023-03-01T07:17:11;4.22;;;2.33;;
46230;SDS011;31949;51.404;-0.038;2023-03-01T07:19:38;3.30;;;1.85;;
46230;SDS011;31949;51.404;-0.038;2023-03-01T07:22:05;4.35;;;2.33;;
46230;SDS011;31949;51.404;-0.038;2023-03-01T07:24:34;2.50;;;2.08;;
46230;SDS011;31949;51.404;-0.038;2023-03-01T07:27:01;2.90;;;1.85;;
46230;SDS011;31949;51.404;-0.038;2023-03-01T07:29:29;3.05;;;2.00;;
46230;SDS011;31949;51.404;-0.038;2023-03-01T07:31:56;4.60;;;1.77;;
46230;SDS011;31949;51.404;-0.038;2023-03-01T07:34:24;2.78;;;1.92;;
46230;SDS011;31949;51.404;-0.038;2023-03-01T07:36:52;2.55;;;2.00;;
46230;SDS011;31949;51.404;-0.038;2023-03-01T07:39:19;7.18;;;2.28;;
46230;SDS011;31949;51.404;-0.038;2023-03-01T07:41:46;3.58;;;1.73;;
46230;SDS011;31949;51.404;-0.038;2023-03-01T07:44:13;2.90;;;1.67;;
46230;SDS011;31949;51.404;-0.038;2023-03-01T07:46:41;7.15;;;2.03;;
46230;SDS011;31949;51.404;-0.038;2023-03-01T07:49:09;4.90;;;2.55;;
46230;SDS011;31949;51.404;-0.038;2023-03-01T07:51:36;2.50;;;1.75;;
46230;SDS011;31949;51.404;-0.038;2023-03-01T07:54:03;4.80;;;2.47;;
46230;SDS011;31949;51.404;-0.038;2023-03-01T07:56:31;8.55;;;2.67;;
46230;SDS011;31949;51.404;-0.038;2023-03-01T07:58:58;4.75;;;2.53;;
46230;SDS011;31949;51.404;-0.038;2023-03-01T08:01:26;3.80;;;1.70;;
46230;SDS011;31949;51.404;-0.038;2023-03-01T08:03:53;3.38;;;2.05;;
46230;SDS011;31949;51.404;-0.038;2023-03-01T08:06:20;5.10;;;2.38;;
46230;SDS011;31949;51.404;-0.038;2023-03-01T08:08:47;4.05;;;1.95;;
46230;SDS011;31949;51.404;-0.038;2023-03-01T08:11:15;2.65;;;1.73;;
46230;SDS011;31949;51.404;-0.038;2023-03-01T08:13:43;3.10;;;2.10;;
46230;SDS011;31949;51.404;-0.038;2023-03-01T08:16:11;3.33;;;2.03;;
46230;SDS011;31949;51.404;-0.038;2023-03-01T08:18:41;3.80;;;1.88;;
46230;SDS011;31949;51.404;-0.038;2023-03-01T08:21:10;2.22;;;1.63;;
46230;SDS011;31949;51.404;-0.038;2023-03-01T08:23:39;2.83;;;1.70;;
46230;SDS011;31949;51.404;-0.038;2023-03-01T08:26:08;4.40;;;1.80;;
46230;SDS011;31949;51.404;-0.038;2023-03-01T08:28:38;4.93;;;1.73;;
46230;SDS011;31949;51.404;-0.038;2023-03-01T08:31:13;4.38;;;2.10;;
46230;SDS011;31949;51.404;-0.038;2023-03-01T08:33:46;5.30;;;1.92;;
46230;SDS011;31949;51.404;-0.038;2023-03-01T08:36:24;4.20;;;1.73;;
46230;SDS011;31949;51.404;-0.038;2023-03-01T08:38:53;3.70;;;1.73;;
46230;SDS011;31949;51.404;-0.038;2023-03-01T08:41:21;2.92;;;1.60;;
46230;SDS011;31949;51.404;-0.038;2023-03-01T08:43:49;2.03;;;1.50;;
46230;SDS011;31949;51.404;-0.038;2023-03-01T08:46:16;4.32;;;2.15;;
46230;SDS011;31949;51.404;-0.038;2023-03-01T08:48:43;1.88;;;1.30;;
46230;SDS011;31949;51.404;-0.038;2023-03-01T08:51:15;2.33;;;1.65;;
46230;SDS011;31949;51.404;-0.038;2023-03-01T08:53:47;2.85;;;2.00;;
46230;SDS011;31949;51.404;-0.038;2023-03-01T08:56:14;2.75;;;1.67;;
46230;SDS011;31949;51.404;-0.038;2023-03-01T08:58:46;2.45;;;1.70;;
46230;SDS011;31949;51.404;-0.038;2023-03-01T09:01:15;4.38;;;1.48;;
46230;SDS011;31949;51.404;-0.038;2023-03-01T09:03:44;3.47;;;1.58;;
46230;SDS011;31949;51.404;-0.038;2023-03-01T09:06:12;3.50;;;1.92;;
46230;SDS011;31949;51.404;-0.038;2023-03-01T09:08:41;7.32;;;1.92;;
46230;SDS011;31949;51.404;-0.038;2023-03-01T09:11:11;1.40;;;1.30;;
46230;SDS011;31949;51.404;-0.038;2023-03-01T09:13:42;3.55;;;1.50;;
46230;SDS011;31949;51.404;-0.038;2023-03-01T09:16:10;2.20;;;1.20;;
46230;SDS011;31949;51.404;-0.038;2023-03-01T09:18:39;7.47;;;1.98;;
46230;SDS011;31949;51.404;-0.038;2023-03-01T09:21:11;4.97;;;1.60;;
46230;SDS011;31949;51.404;-0.038;2023-03-01T09:23:45;3.45;;;1.48;;
46230;SDS011;31949;51.404;-0.038;2023-03-01T09:28:46;3.30;;;1.30;;
46230;SDS011;31949;51.404;-0.038;2023-03-01T09:31:14;3.13;;;1.10;;
46230;SDS011;31949;51.404;-0.038;2023-03-01T09:33:42;3.50;;;2.00;;
46230;SDS011;31949;51.404;-0.038;2023-03-01T09:36:15;3.60;;;1.52;;
46230;SDS011;31949;51.404;-0.038;2023-03-01T09:38:44;1.70;;;1.33;;
46230;SDS011;31949;51.404;-0.038;2023-03-01T09:44:30;4.20;;;1.38;;
46230;SDS011;31949;51.404;-0.038;2023-03-01T09:47:19;2.13;;;1.10;;
46230;SDS011;31949;51.404;-0.038;2023-03-01T09:50:00;2.88;;;1.30;;
46230;SDS011;31949;51.404;-0.038;2023-03-01T09:55:37;1.35;;;1.10;;
46230;SDS011;31949;51.404;-0.038;2023-03-01T09:58:29;7.03;;;1.83;;
46230;SDS011;31949;51.404;-0.038;2023-03-01T10:01:50;2.53;;;1.13;;
46230;SDS011;31949;51.404;-0.038;2023-03-01T10:04:28;3.85;;;1.52;;
46230;SDS011;31949;51.404;-0.038;2023-03-01T10:09:30;2.97;;;1.30;;
46230;SDS011;31949;51.404;-0.038;2023-03-01T10:12:00;3.20;;;1.20;;
46230;SDS011;31949;51.404;-0.038;2023-03-01T10:14:35;1.70;;;1.05;;
46230;SDS011;31949;51.404;-0.038;2023-03-01T10:20:15;4.40;;;1.13;;
46230;SDS011;31949;51.404;-0.038;2023-03-01T10:22:43;2.10;;;1.27;;
46230;SDS011;31949;51.404;-0.038;2023-03-01T10:31:04;3.05;;;0.90;;
46230;SDS011;31949;51.404;-0.038;2023-03-01T10:33:39;1.13;;;0.95;;
46230;SDS011;31949;51.404;-0.038;2023-03-01T10:36:08;3.10;;;1.00;;
46230;SDS011;31949;51.404;-0.038;2023-03-01T10:38:52;1.98;;;1.10;;
46230;SDS011;31949;51.404;-0.038;2023-03-01T10:41:22;3.83;;;1.05;;
46230;SDS011;31949;51.404;-0.038;2023-03-01T10:43:51;2.10;;;0.70;;
46230;SDS011;31949;51.404;-0.038;2023-03-01T10:46:31;1.98;;;0.68;;
46230;SDS011;31949;51.404;-0.038;2023-03-01T10:49:06;1.33;;;0.95;;
46230;SDS011;31949;51.404;-0.038;2023-03-01T10:51:34;2.10;;;0.80;;
46230;SDS011;31949;51.404;-0.038;2023-03-01T10:54:01;2.45;;;0.80;;
46230;SDS011;31949;51.404;-0.038;2023-03-01T10:56:30;0.50;;;0.50;;
46230;SDS011;31949;51.404;-0.038;2023-03-01T11:02:12;1.60;;;0.50;;
46230;SDS011;31949;51.404;-0.038;2023-03-01T11:10:29;6.15;;;1.10;;
46230;SDS011;31949;51.404;-0.038;2023-03-01T11:13:11;2.13;;;0.60;;
46230;SDS011;31949;51.404;-0.038;2023-03-01T11:15:42;3.70;;;0.75;;
46230;SDS011;31949;51.404;-0.038;2023-03-01T11:18:24;1.20;;;0.70;;
46230;SDS011;31949;51.404;-0.038;2023-03-01T11:21:09;3.95;;;0.85;;
46230;SDS011;31949;51.404;-0.038;2023-03-01T11:23:37;2.88;;;0.82;;
46230;SDS011;31949;51.404;-0.038;2023-03-01T11:26:08;2.67;;;0.60;;
46230;SDS011;31949;51.404;-0.038;2023-03-01T11:28:39;2.75;;;0.70;;
46230;SDS011;31949;51.404;-0.038;2023-03-01T11:31:09;2.22;;;0.93;;
46230;SDS011;31949;51.404;-0.038;2023-03-01T11:38:42;1.73;;;0.82;;
46230;SDS011;31949;51.404;-0.038;2023-03-01T11:41:17;3.22;;;0.40;;
46230;SDS011;31949;51.404;-0.038;2023-03-01T11:43:52;1.48;;;1.08;;
46230;SDS011;31949;51.404;-0.038;2023-03-01T11:49:12;4.72;;;0.93;;
46230;SDS011;31949;51.404;-0.038;2023-03-01T11:59:46;1.70;;;1.00;;
46230;SDS011;31949;51.404;-0.038;2023-03-01T12:16:09;2.92;;;1.52;;
46230;SDS011;31949;51.404;-0.038;2023-03-01T12:19:15;4.97;;;0.80;;
46230;SDS011;31949;51.404;-0.038;2023-03-01T12:35:57;1.73;;;1.10;;
46230;SDS011;31949;51.404;-0.038;2023-03-01T12:38:42;3.47;;;1.00;;
46230;SDS011;31949;51.404;-0.038;2023-03-01T12:44:27;2.03;;;1.23;;
46230;SDS011;31949;51.404;-0.038;2023-03-01T12:49:57;3.35;;;1.20;;
46230;SDS011;31949;51.404;-0.038;2023-03-01T12:52:36;1.92;;;1.25;;
46230;SDS011;31949;51.404;-0.038;2023-03-01T12:58:17;2.17;;;1.15;;
46230;SDS011;31949;51.404;-0.038;2023-03-01T13:15:26;9.63;;;1.30;;
46230;SDS011;31949;51.404;-0.038;2023-03-01T13:17:59;1.88;;;1.13;;
46230;SDS011;31949;51.404;-0.038;2023-03-01T13:20:33;3.78;;;1.73;;
46230;SDS011;31949;51.404;-0.038;2023-03-01T13:28:50;3.13;;;1.17;;
46230;SDS011;31949;51.404;-0.038;2023-03-01T13:33:47;3.08;;;1.17;;
46230;SDS011;31949;51.404;-0.038;2023-03-01T13:38:57;1.45;;;1.02;;
46230;SDS011;31949;51.404;-0.038;2023-03-01T13:46:50;4.18;;;2.10;;
46230;SDS011;31949;51.404;-0.038;2023-03-01T13:49:47;2.97;;;1.55;;
46230;SDS011;31949;51.404;-0.038;2023-03-01T13:54:57;1.77;;;1.45;;
46230;SDS011;31949;51.404;-0.038;2023-03-01T13:57:26;2.13;;;1.35;;
46230;SDS011;31949;51.404;-0.038;2023-03-01T14:00:03;3.83;;;1.50;;
46230;SDS011;31949;51.404;-0.038;2023-03-01T14:02:32;3.47;;;1.50;;
46230;SDS011;31949;51.404;-0.038;2023-03-01T14:05:00;5.65;;;1.63;;
46230;SDS011;31949;51.404;-0.038;2023-03-01T14:07:28;3.00;;;1.88;;
46230;SDS011;31949;51.404;-0.038;2023-03-01T14:10:00;4.82;;;1.95;;
46230;SDS011;31949;51.404;-0.038;2023-03-01T14:18:14;1.98;;;1.08;;
46230;SDS011;31949;51.404;-0.038;2023-03-01T14:20:48;3.00;;;1.75;;
46230;SDS011;31949;51.404;-0.038;2023-03-01T14:23:21;4.53;;;1.20;;
46230;SDS011;31949;51.404;-0.038;2023-03-01T14:25:56;2.05;;;1.58;;
46230;SDS011;31949;51.404;-0.038;2023-03-01T14:28:28;3.08;;;1.52;;
46230;SDS011;31949;51.404;-0.038;2023-03-01T14:30:59;1.70;;;1.40;;
46230;SDS011;31949;51.404;-0.038;2023-03-01T14:33:35;3.83;;;1.73;;
46230;SDS011;31949;51.404;-0.038;2023-03-01T14:38:39;2.10;;;1.40;;
46230;SDS011;31949;51.404;-0.038;2023-03-01T14:41:08;3.08;;;1.30;;
46230;SDS011;31949;51.404;-0.038;2023-03-01T14:43:40;1.42;;;1.25;;
46230;SDS011;31949;51.404;-0.038;2023-03-01T14:46:17;2.00;;;1.35;;
46230;SDS011;31949;51.404;-0.038;2023-03-01T14:48:48;1.48;;;1.35;;
46230;SDS011;31949;51.404;-0.038;2023-03-01T14:51:19;3.03;;;2.15;;
46230;SDS011;31949;51.404;-0.038;2023-03-01T14:53:47;2.92;;;2.00;;
46230;SDS011;31949;51.404;-0.038;2023-03-01T14:56:17;6.65;;;1.92;;
46230;SDS011;31949;51.404;-0.038;2023-03-01T14:58:45;5.00;;;1.45;;
46230;SDS011;31949;51.404;-0.038;2023-03-01T15:01:16;1.52;;;1.23;;
46230;SDS011;31949;51.404;-0.038;2023-03-01T15:03:48;4.38;;;1.70;;
46230;SDS011;31949;51.404;-0.038;2023-03-01T15:06:18;5.85;;;1.58;;
46230;SDS011;31949;51.404;-0.038;2023-03-01T15:08:49;4.75;;;1.60;;
46230;SDS011;31949;51.404;-0.038;2023-03-01T15:11:23;7.70;;;1.88;;
46230;SDS011;31949;51.404;-0.038;2023-03-01T15:13:55;2.90;;;1.00;;
46230;SDS011;31949;51.404;-0.038;2023-03-01T15:16:26;3.70;;;1.40;;
46230;SDS011;31949;51.404;-0.038;2023-03-01T15:19:01;3.40;;;1.27;;
46230;SDS011;31949;51.404;-0.038;2023-03-01T15:21:32;5.05;;;1.50;;
46230;SDS011;31949;51.404;-0.038;2023-03-01T15:24:04;4.28;;;1.33;;
46230;SDS011;31949;51.404;-0.038;2023-03-01T15:26:42;4.80;;;1.20;;
46230;SDS011;31949;51.404;-0.038;2023-03-01T15:29:19;2.53;;;1.58;;
46230;SDS011;31949;51.404;-0.038;2023-03-01T15:31:56;2.10;;;1.10;;
46230;SDS011;31949;51.404;-0.038;2023-03-01T15:36:56;4.93;;;1.25;;
46230;SDS011;31949;51.404;-0.038;2023-03-01T15:42:06;2.78;;;1.23;;
46230;SDS011;31949;51.404;-0.038;2023-03-01T15:44:38;3.80;;;1.27;;
46230;SDS011;31949;51.404;-0.038;2023-03-01T15:47:26;3.05;;;1.00;;
46230;SDS011;31949;51.404;-0.038;2023-03-01T15:50:23;2.55;;;1.13;;
46230;SDS011;31949;51.404;-0.038;2023-03-01T15:52:54;1.55;;;1.10;;
46230;SDS011;31949;51.404;-0.038;2023-03-01T15:55:31;2.42;;;1.48;;
46230;SDS011;31949;51.404;-0.038;2023-03-01T15:58:00;2.85;;;1.45;;
46230;SDS011;31949;51.404;-0.038;2023-03-01T16:00:47;4.63;;;1.35;;
46230;SDS011;31949;51.404;-0.038;2023-03-01T16:03:27;5.05;;;1.73;;
46230;SDS011;31949;51.404;-0.038;2023-03-01T16:05:54;3.88;;;1.70;;
46230;SDS011;31949;51.404;-0.038;2023-03-01T16:08:21;2.15;;;1.30;;
46230;SDS011;31949;51.404;-0.038;2023-03-01T16:10:49;2.47;;;1.33;;
46230;SDS011;31949;51.404;-0.038;2023-03-01T16:13:18;1.17;;;1.08;;
46230;SDS011;31949;51.404;-0.038;2023-03-01T16:15:45;1.85;;;1.20;;
46230;SDS011;31949;51.404;-0.038;2023-03-01T16:18:13;2.20;;;1.27;;
46230;SDS011;31949;51.404;-0.038;2023-03-01T16:20:41;2.58;;;1.10;;
46230;SDS011;31949;51.404;-0.038;2023-03-01T16:23:08;2.83;;;1.67;;
46230;SDS011;31949;51.404;-0.038;2023-03-01T16:25:37;4.35;;;1.45;;
46230;SDS011;31949;51.404;-0.038;2023-03-01T16:28:05;2.60;;;1.50;;
46230;SDS011;31949;51.404;-0.038;2023-03-01T16:30:36;3.38;;;1.77;;
46230;SDS011;31949;51.404;-0.038;2023-03-01T16:33:06;6.65;;;1.90;;
46230;SDS011;31949;51.404;-0.038;2023-03-01T16:35:54;4.50;;;1.77;;
46230;SDS011;31949;51.404;-0.038;2023-03-01T16:38:22;8.63;;;1.70;;
46230;SDS011;31949;51.404;-0.038;2023-03-01T16:40:50;4.18;;;2.00;;
46230;SDS011;31949;51.404;-0.038;2023-03-01T16:43:18;2.65;;;1.63;;
46230;SDS011;31949;51.404;-0.038;2023-03-01T16:45:45;2.78;;;1.48;;
46230;SDS011;31949;51.404;-0.038;2023-03-01T16:48:13;3.90;;;1.70;;
46230;SDS011;31949;51.404;-0.038;2023-03-01T16:50:40;3.97;;;1.50;;
46230;SDS011;31949;51.404;-0.038;2023-03-01T16:53:08;4.03;;;2.00;;
46230;SDS011;31949;51.404;-0.038;2023-03-01T16:55:35;3.97;;;2.28;;
46230;SDS011;31949;51.404;-0.038;2023-03-01T16:58:04;4.78;;;2.25;;
46230;SDS011;31949;51.404;-0.038;2023-03-01T17:00:32;4.53;;;1.95;;
46230;SDS011;31949;51.404;-0.038;2023-03-01T17:02:59;2.97;;;2.70;;
46230;SDS011;31949;51.404;-0.038;2023-03-01T17:05:26;6.65;;;2.67;;
46230;SDS011;31949;51.404;-0.038;2023-03-01T17:07:54;3.75;;;2.10;;
46230;SDS011;31949;51.404;-0.038;2023-03-01T17:10:22;5.20;;;2.03;;
46230;SDS011;31949;51.404;-0.038;2023-03-01T17:12:49;5.93;;;1.65;;
46230;SDS011;31949;51.404;-0.038;2023-03-01T17:15:17;2.40;;;1.48;;
46230;SDS011;31949;51.404;-0.038;2023-03-01T17:17:44;3.33;;;1.48;;